Time;durP1;ratioP1;P1;durP2;ratioP2;P2;SDS_P1;SDS_P2;PMS_P1;PMS_P2;Temp;Humidity;BMP_temperature;BMP_pressure;BME280_temperature;BME280_humidity;BME280_pressure;Samples;Min_cycle;Max_cycle;Signal;HPM_P1;HPM_P2
2023/06/19 00:01:58;;;;;;;;;;;27.20;35.60;;;;;;5033830;28;19913;-77
2023/06/19 00:04:23;;;;;;;;;;;27.20;35.70;;;;;;5034232;28;20395;-77
2023/06/19 00:06:49;;;;;;;;;;;27.20;35.80;;;;;;5015827;28;19913;-77
2023/06/19 00:09:14;;;;;;;;;;;27.20;35.80;;;;;;5034140;28;19925;-77
2023/06/19 00:11:40;;;;;;;;;;;27.20;35.80;;;;;;5033729;28;19916;-76
2023/06/19 00:14:05;;;;;;;;;;;27.10;35.70;;;;;;5053918;28;19921;-77
2023/06/19 00:16:31;;;;;;;;;;;27.10;35.60;;;;;;5053086;28;19909;-77
2023/06/19 00:18:56;;;;;;;;;;;27.10;35.70;;;;;;5053589;28;19924;-76
2023/06/19 00:21:24;;;;;;;;;;;27.00;35.70;;;;;;5035839;28;19909;-69
2023/06/19 00:23:50;;;;;;;;;;;26.90;35.70;;;;;;5054137;28;20284;-69
2023/06/19 00:26:15;;;;;;;;;;;26.90;35.70;;;;;;5053928;28;20019;-70
2023/06/19 00:28:43;;;;;;;;;;;26.90;35.60;;;;;;5054420;28;19917;-69
2023/06/19 00:31:09;;;;;;;;;;;26.80;35.70;;;;;;5059394;28;20375;-69
2023/06/19 00:33:34;;;;;;;;;;;26.80;35.70;;;;;;5074197;28;19924;-69
2023/06/19 00:36:01;;;;;;;;;;;26.70;35.70;;;;;;5055104;28;20349;-69
2023/06/19 00:38:26;;;;;;;;;;;26.70;35.80;;;;;;5054176;28;20284;-69
2023/06/19 00:40:52;;;;;;;;;;;26.60;35.80;;;;;;5035629;28;19923;-69
2023/06/19 00:43:18;;;;;;;;;;;26.50;35.80;;;;;;5054038;28;19920;-69
2023/06/19 00:45:43;;;;;;;;;;;26.50;35.80;;;;;;5053779;28;19920;-69
2023/06/19 00:48:09;;;;;;;;;;;26.50;36.00;;;;;;5053399;28;20241;-69
2023/06/19 00:50:37;;;;;;;;;;;26.50;36.10;;;;;;5058252;28;19951;-69
2023/06/19 00:53:03;;;;;;;;;;;26.50;36.00;;;;;;5072767;28;19927;-70
2023/06/19 00:55:29;;;;;;;;;;;26.50;36.00;;;;;;5073749;28;19931;-69
2023/06/19 00:57:55;;;;;;;;;;;26.50;36.40;;;;;;5073162;28;19975;-70
2023/06/19 01:00:20;;;;;;;;;;;26.50;36.60;;;;;;5073736;28;19943;-69
2023/06/19 01:02:46;;;;;;;;;;;26.40;36.80;;;;;;5073320;28;19923;-69
2023/06/19 01:05:12;;;;;;;;;;;26.40;36.80;;;;;;5072853;28;20276;-69
2023/06/19 01:07:43;;;;;;;;;;;26.40;36.90;;;;;;5073547;28;19908;-71
2023/06/19 01:10:11;;;;;;;;;;;26.40;37.30;;;;;;5073391;28;19915;-70
2023/06/19 01:12:39;;;;;;;;;;;26.30;37.10;;;;;;5052503;28;19909;-70
2023/06/19 01:15:06;;;;;;;;;;;26.30;37.00;;;;;;5053149;28;19999;-70
2023/06/19 01:17:32;;;;;;;;;;;26.30;37.00;;;;;;5047821;28;20392;-71
2023/06/19 01:19:58;;;;;;;;;;;26.30;37.00;;;;;;5033035;28;19914;-70
2023/06/19 01:22:24;;;;;;;;;;;26.30;37.10;;;;;;5033176;28;19910;-70
2023/06/19 01:27:53;;;;;;;;;;;26.30;36.90;;;;;;5033314;28;19920;-71
2023/06/19 01:30:19;;;;;;;;;;;26.30;36.90;;;;;;5032770;28;19913;-70
2023/06/19 01:32:49;;;;;;;;;;;26.30;36.90;;;;;;5070658;28;19919;-70
2023/06/19 01:35:17;;;;;;;;;;;26.30;36.80;;;;;;5072811;28;19916;-70
2023/06/19 01:37:43;;;;;;;;;;;26.30;36.60;;;;;;5065713;28;19967;-70
2023/06/19 01:40:09;;;;;;;;;;;26.30;36.60;;;;;;5052212;28;19959;-70
2023/06/19 01:42:36;;;;;;;;;;;26.30;36.50;;;;;;5052242;28;20007;-72
2023/06/19 01:45:03;;;;;;;;;;;26.30;36.50;;;;;;5040769;28;20361;-71
2023/06/19 01:47:28;;;;;;;;;;;26.30;36.40;;;;;;5051357;28;19924;-70
2023/06/19 01:49:54;;;;;;;;;;;26.30;36.40;;;;;;5052327;28;19913;-70
2023/06/19 01:52:19;;;;;;;;;;;26.40;36.40;;;;;;5052430;28;19962;-70
2023/06/19 01:54:45;;;;;;;;;;;26.40;36.40;;;;;;5052321;28;19919;-70
2023/06/19 01:57:11;;;;;;;;;;;26.40;36.30;;;;;;5052293;28;19916;-70
2023/06/19 01:59:36;;;;;;;;;;;26.40;36.30;;;;;;5048400;28;19928;-71
2023/06/19 02:02:03;;;;;;;;;;;26.40;36.20;;;;;;5033597;28;19914;-72
2023/06/19 02:04:29;;;;;;;;;;;26.40;36.30;;;;;;5032093;28;20375;-70
2023/06/19 02:06:54;;;;;;;;;;;26.40;36.20;;;;;;5050369;28;19926;-71
2023/06/19 02:09:20;;;;;;;;;;;26.40;36.30;;;;;;5052385;28;19920;-70
2023/06/19 02:11:45;;;;;;;;;;;26.40;36.20;;;;;;5051820;28;19912;-70
2023/06/19 02:14:11;;;;;;;;;;;26.40;36.30;;;;;;5052467;28;19921;-70
2023/06/19 02:16:36;;;;;;;;;;;26.30;36.40;;;;;;5052237;28;19908;-70
2023/06/19 02:19:02;;;;;;;;;;;26.30;36.40;;;;;;5052196;28;19917;-71
2023/06/19 02:21:28;;;;;;;;;;;26.30;36.40;;;;;;5052034;28;19916;-70
2023/06/19 02:23:54;;;;;;;;;;;26.30;36.70;;;;;;5051036;28;19916;-70
2023/06/19 02:26:19;;;;;;;;;;;26.30;36.80;;;;;;5039993;28;20388;-70
2023/06/19 02:28:45;;;;;;;;;;;26.20;37.00;;;;;;5042049;28;20364;-70
2023/06/19 02:31:10;;;;;;;;;;;26.20;37.10;;;;;;5046454;28;20429;-70
2023/06/19 02:33:35;;;;;;;;;;;26.10;37.20;;;;;;5052437;28;19924;-71
2023/06/19 02:36:01;;;;;;;;;;;26.10;37.30;;;;;;5051783;28;19954;-71
2023/06/19 02:38:29;;;;;;;;;;;26.10;37.30;;;;;;5052463;28;19917;-71
2023/06/19 02:40:55;;;;;;;;;;;26.00;37.40;;;;;;5050321;28;19920;-71
2023/06/19 02:43:20;;;;;;;;;;;26.10;37.40;;;;;;5052359;28;20665;-71
2023/06/19 02:45:45;;;;;;;;;;;26.00;37.40;;;;;;5051995;28;19970;-70
2023/06/19 02:48:11;;;;;;;;;;;26.10;37.30;;;;;;5051929;28;19920;-70
2023/06/19 02:50:36;;;;;;;;;;;26.10;37.30;;;;;;5051414;28;20007;-71
2023/06/19 02:53:02;;;;;;;;;;;26.10;37.30;;;;;;5051695;28;19959;-70
2023/06/19 02:55:27;;;;;;;;;;;26.10;37.20;;;;;;5051672;28;19912;-70
2023/06/19 02:57:53;;;;;;;;;;;26.10;37.20;;;;;;5033316;28;19917;-70
2023/06/19 03:00:19;;;;;;;;;;;26.00;37.30;;;;;;5031766;28;19995;-70
2023/06/19 03:02:45;;;;;;;;;;;26.10;37.30;;;;;;5031835;28;20431;-71
2023/06/19 03:05:12;;;;;;;;;;;26.10;37.30;;;;;;5031690;28;19917;-70
2023/06/19 03:07:38;;;;;;;;;;;26.10;37.20;;;;;;5032165;28;19993;-71
2023/06/19 03:10:03;;;;;;;;;;;26.10;37.20;;;;;;5050109;28;20396;-69
2023/06/19 03:12:29;;;;;;;;;;;26.00;37.10;;;;;;5051582;28;19913;-71
2023/06/19 03:14:54;;;;;;;;;;;26.10;37.00;;;;;;5051812;28;19908;-71
2023/06/19 03:17:19;;;;;;;;;;;26.10;37.00;;;;;;5054433;28;19963;-69
2023/06/19 03:19:45;;;;;;;;;;;26.00;37.00;;;;;;5055441;28;19917;-68
2023/06/19 03:22:10;;;;;;;;;;;26.10;37.00;;;;;;5055057;28;19909;-68
2023/06/19 03:24:36;;;;;;;;;;;26.10;37.30;;;;;;5055367;28;20311;-70
2023/06/19 03:27:01;;;;;;;;;;;26.00;37.80;;;;;;5055448;28;19912;-69
2023/06/19 03:29:27;;;;;;;;;;;26.00;38.40;;;;;;5054049;28;19917;-71
2023/06/19 03:31:52;;;;;;;;;;;25.90;38.50;;;;;;5065579;28;19922;-68
2023/06/19 03:34:17;;;;;;;;;;;25.90;38.70;;;;;;5075505;28;20010;-68
2023/06/19 03:36:43;;;;;;;;;;;25.80;38.50;;;;;;5070328;28;19909;-69
2023/06/19 03:39:08;;;;;;;;;;;25.80;38.50;;;;;;5035282;28;19917;-69
2023/06/19 03:41:34;;;;;;;;;;;25.80;38.50;;;;;;5034853;28;19909;-69
2023/06/19 03:43:59;;;;;;;;;;;25.80;38.50;;;;;;5035105;28;19947;-69
2023/06/19 03:46:24;;;;;;;;;;;25.70;38.50;;;;;;5051705;28;19966;-69
2023/06/19 03:48:50;;;;;;;;;;;25.60;38.50;;;;;;5055118;28;19924;-69
2023/06/19 03:51:15;;;;;;;;;;;25.70;38.50;;;;;;5054459;28;19912;-69
2023/06/19 03:53:42;;;;;;;;;;;25.70;38.40;;;;;;5054616;28;20257;-69
2023/06/19 03:56:07;;;;;;;;;;;25.60;38.40;;;;;;5054344;28;20280;-69
2023/06/19 03:58:33;;;;;;;;;;;25.70;38.40;;;;;;5055004;28;19917;-69
2023/06/19 04:00:58;;;;;;;;;;;25.70;38.40;;;;;;5054285;28;19913;-69
2023/06/19 04:03:24;;;;;;;;;;;25.80;38.50;;;;;;5054708;28;19970;-69
2023/06/19 04:05:49;;;;;;;;;;;25.80;38.50;;;;;;5054257;28;20270;-70
2023/06/19 04:08:15;;;;;;;;;;;25.80;38.50;;;;;;5054200;28;20361;-70
2023/06/19 04:10:40;;;;;;;;;;;25.80;38.40;;;;;;5054214;28;19908;-70
2023/06/19 04:13:06;;;;;;;;;;;25.90;38.40;;;;;;5054458;28;19923;-70
2023/06/19 04:15:32;;;;;;;;;;;26.00;38.40;;;;;;5054116;28;20017;-70
2023/06/19 04:17:58;;;;;;;;;;;26.00;38.30;;;;;;5054463;28;19917;-70
2023/06/19 04:20:23;;;;;;;;;;;26.10;38.40;;;;;;5054534;28;19909;-69
2023/06/19 04:22:49;;;;;;;;;;;26.20;38.40;;;;;;5048694;28;20495;-70
2023/06/19 04:25:14;;;;;;;;;;;26.30;38.30;;;;;;5033933;28;19917;-70
2023/06/19 04:27:40;;;;;;;;;;;26.30;38.30;;;;;;5033125;28;19924;-70
2023/06/19 04:30:09;;;;;;;;;;;26.40;38.20;;;;;;5033934;28;19967;-71
2023/06/19 04:32:40;;;;;;;;;;;26.60;38.10;;;;;;5071148;28;19916;-70
2023/06/19 04:35:09;;;;;;;;;;;26.80;38.10;;;;;;5073911;28;19966;-71
2023/06/19 04:37:34;;;;;;;;;;;26.90;37.90;;;;;;5073713;28;19916;-70
2023/06/19 04:40:00;;;;;;;;;;;27.00;37.80;;;;;;5067901;28;19913;-71
2023/06/19 04:42:26;;;;;;;;;;;27.20;37.60;;;;;;5015777;28;19920;-70
2023/06/19 04:44:51;;;;;;;;;;;27.30;37.50;;;;;;5038208;28;19909;-70
2023/06/19 04:47:18;;;;;;;;;;;27.40;37.30;;;;;;5053229;28;19917;-70
2023/06/19 04:49:43;;;;;;;;;;;27.50;37.20;;;;;;5052800;28;20372;-70
2023/06/19 04:52:09;;;;;;;;;;;27.60;37.10;;;;;;5053355;28;19920;-70
2023/06/19 04:54:34;;;;;;;;;;;27.70;36.90;;;;;;5054047;28;20290;-71
2023/06/19 04:57:00;;;;;;;;;;;27.80;36.80;;;;;;5053094;28;20387;-70
2023/06/19 04:59:25;;;;;;;;;;;27.90;36.70;;;;;;5049718;28;19928;-70
2023/06/19 05:01:53;;;;;;;;;;;28.00;36.60;;;;;;5033189;28;20289;-70
2023/06/19 05:04:22;;;;;;;;;;;28.10;36.50;;;;;;5033769;28;19919;-71
2023/06/19 05:06:48;;;;;;;;;;;28.30;36.30;;;;;;5032995;28;20252;-71
2023/06/19 05:09:13;;;;;;;;;;;28.40;36.20;;;;;;5041852;28;19917;-69
2023/06/19 05:11:39;;;;;;;;;;;28.50;36.00;;;;;;5052926;28;19909;-70
2023/06/19 05:14:04;;;;;;;;;;;28.60;35.90;;;;;;5053437;28;19916;-70
2023/06/19 05:16:30;;;;;;;;;;;28.70;35.60;;;;;;5053143;28;19912;-70
2023/06/19 05:18:55;;;;;;;;;;;28.80;35.50;;;;;;5040403;28;20007;-70
2023/06/19 05:21:21;;;;;;;;;;;28.80;35.30;;;;;;5050245;28;19962;-70
2023/06/19 05:23:50;;;;;;;;;;;28.80;35.20;;;;;;5036378;28;19963;-70
2023/06/19 05:26:16;;;;;;;;;;;28.90;35.10;;;;;;5051375;28;20015;-70
2023/06/19 05:28:41;;;;;;;;;;;29.00;35.20;;;;;;5035408;28;19995;-70
2023/06/19 05:31:07;;;;;;;;;;;29.20;35.30;;;;;;5043304;28;20394;-70
2023/06/19 05:33:32;;;;;;;;;;;29.50;35.20;;;;;;5052662;28;19921;-70
2023/06/19 05:35:58;;;;;;;;;;;29.90;35.00;;;;;;5032441;28;20000;-70
2023/06/19 05:38:25;;;;;;;;;;;30.30;34.80;;;;;;5035824;28;19975;-70
2023/06/19 05:40:51;;;;;;;;;;;30.70;34.40;;;;;;5052524;28;20380;-70
2023/06/19 05:43:18;;;;;;;;;;;31.20;33.80;;;;;;5052406;28;19959;-70
2023/06/19 05:45:44;;;;;;;;;;;31.50;33.50;;;;;;5052682;28;19916;-70
2023/06/19 05:48:09;;;;;;;;;;;31.90;33.30;;;;;;5052197;28;20273;-70
2023/06/19 05:50:34;;;;;;;;;;;32.30;32.70;;;;;;5051576;28;19923;-70
2023/06/19 05:53:00;;;;;;;;;;;32.80;32.50;;;;;;5052294;28;19917;-70
2023/06/19 05:55:27;;;;;;;;;;;33.20;32.00;;;;;;5052996;28;19924;-70
2023/06/19 05:57:53;;;;;;;;;;;33.50;31.70;;;;;;5049963;28;19999;-70
2023/06/19 06:00:19;;;;;;;;;;;33.90;31.40;;;;;;5045950;28;19913;-70
2023/06/19 06:02:44;;;;;;;;;;;34.30;30.90;;;;;;5049527;28;19924;-71
2023/06/19 06:05:10;;;;;;;;;;;34.70;30.50;;;;;;5050572;28;19913;-70
2023/06/19 06:07:35;;;;;;;;;;;35.00;30.10;;;;;;5050160;28;20359;-70
2023/06/19 06:10:01;;;;;;;;;;;35.30;29.90;;;;;;5050378;28;19974;-71
2023/06/19 06:12:27;;;;;;;;;;;35.70;29.70;;;;;;5057540;28;20376;-70
2023/06/19 06:14:52;;;;;;;;;;;36.20;29.40;;;;;;5057906;28;19913;-70
2023/06/19 06:17:17;;;;;;;;;;;36.40;28.80;;;;;;5050753;28;19963;-71
2023/06/19 06:19:43;;;;;;;;;;;36.80;28.50;;;;;;5049787;28;19917;-69
2023/06/19 06:22:08;;;;;;;;;;;37.00;27.90;;;;;;5051876;28;19938;-69
2023/06/19 06:24:34;;;;;;;;;;;37.20;27.70;;;;;;5052325;28;19962;-69
2023/06/19 06:26:59;;;;;;;;;;;37.40;27.50;;;;;;5049959;28;19943;-69
2023/06/19 06:29:25;;;;;;;;;;;37.80;27.30;;;;;;5051192;28;19923;-69
2023/06/19 06:31:53;;;;;;;;;;;38.00;26.90;;;;;;5062728;28;19909;-69
2023/06/19 06:34:21;;;;;;;;;;;38.20;26.80;;;;;;5072075;28;19916;-69
2023/06/19 06:36:47;;;;;;;;;;;38.50;26.30;;;;;;5055510;28;20379;-69
2023/06/19 06:39:12;;;;;;;;;;;38.60;26.20;;;;;;5051910;28;19935;-70
2023/06/19 06:41:37;;;;;;;;;;;38.80;26.10;;;;;;5033926;28;19919;-70
2023/06/19 06:44:04;;;;;;;;;;;39.10;25.80;;;;;;5050319;28;19923;-69
2023/06/19 06:46:29;;;;;;;;;;;39.30;25.50;;;;;;5051275;28;19917;-69
2023/06/19 06:48:55;;;;;;;;;;;39.60;25.60;;;;;;5051589;28;20400;-70
2023/06/19 06:51:22;;;;;;;;;;;39.80;25.20;;;;;;5071701;28;19967;-69
2023/06/19 06:53:47;;;;;;;;;;;40.00;24.70;;;;;;5068396;28;19921;-70
2023/06/19 06:56:12;;;;;;;;;;;40.20;24.60;;;;;;5035952;28;19912;-71
2023/06/19 06:58:39;;;;;;;;;;;40.20;24.30;;;;;;5055670;28;19920;-70
2023/06/19 07:01:04;;;;;;;;;;;40.30;24.30;;;;;;5055286;28;20000;-70
2023/06/19 07:03:31;;;;;;;;;;;40.40;24.20;;;;;;5053220;28;20336;-70
2023/06/19 07:05:57;;;;;;;;;;;40.50;23.90;;;;;;5037100;28;20376;-70
2023/06/19 07:08:22;;;;;;;;;;;40.50;23.90;;;;;;5037039;28;19916;-69
2023/06/19 07:10:47;;;;;;;;;;;40.50;24.10;;;;;;5055662;28;19909;-69
2023/06/19 07:13:13;;;;;;;;;;;40.70;24.10;;;;;;5054045;28;20490;-70
2023/06/19 07:15:38;;;;;;;;;;;40.90;24.10;;;;;;5054911;28;19924;-69
2023/06/19 07:18:04;;;;;;;;;;;41.30;24.10;;;;;;5054476;28;20019;-70
2023/06/19 07:20:29;;;;;;;;;;;41.70;23.60;;;;;;5054816;28;19915;-69
2023/06/19 07:22:55;;;;;;;;;;;42.10;23.20;;;;;;5055322;28;20320;-69
2023/06/19 07:25:20;;;;;;;;;;;42.10;22.60;;;;;;5053701;28;19920;-70
2023/06/19 07:27:45;;;;;;;;;;;42.10;22.60;;;;;;5054713;28;19921;-70
2023/06/19 07:30:11;;;;;;;;;;;41.90;22.70;;;;;;5052672;28;19920;-70
2023/06/19 07:32:37;;;;;;;;;;;41.60;22.60;;;;;;5054892;28;19913;-70
2023/06/19 07:35:03;;;;;;;;;;;41.10;23.00;;;;;;5037943;28;20384;-70
2023/06/19 07:37:28;;;;;;;;;;;40.80;23.10;;;;;;5052988;28;19962;-70
2023/06/19 07:39:53;;;;;;;;;;;40.50;23.50;;;;;;5053909;28;19964;-69
2023/06/19 07:42:19;;;;;;;;;;;40.50;23.60;;;;;;5036413;28;19909;-69
2023/06/19 07:44:45;;;;;;;;;;;40.50;23.80;;;;;;5052958;28;19920;-69
2023/06/19 07:47:11;;;;;;;;;;;40.70;23.80;;;;;;5052062;28;20269;-69
2023/06/19 07:49:36;;;;;;;;;;;40.90;23.60;;;;;;5054691;28;19917;-70
2023/06/19 07:52:02;;;;;;;;;;;41.10;23.30;;;;;;5053979;28;19916;-70
2023/06/19 07:54:28;;;;;;;;;;;41.30;23.30;;;;;;5054671;28;19917;-70
2023/06/19 07:56:53;;;;;;;;;;;41.50;22.80;;;;;;5054573;28;19908;-69
2023/06/19 07:59:19;;;;;;;;;;;41.40;22.40;;;;;;5054334;28;19928;-69
2023/06/19 08:01:44;;;;;;;;;;;41.10;22.50;;;;;;5036260;28;19915;-70
2023/06/19 08:04:10;;;;;;;;;;;40.80;22.80;;;;;;5054145;28;19939;-69
2023/06/19 08:06:35;;;;;;;;;;;40.50;23.10;;;;;;5054200;28;19966;-69
2023/06/19 08:09:01;;;;;;;;;;;40.20;23.30;;;;;;5054130;28;19964;-70
2023/06/19 08:11:27;;;;;;;;;;;39.90;23.60;;;;;;5054358;28;19920;-69
2023/06/19 08:13:52;;;;;;;;;;;39.60;24.00;;;;;;5053929;28;20380;-69
2023/06/19 08:16:18;;;;;;;;;;;39.20;24.40;;;;;;5053388;28;19966;-69
2023/06/19 08:18:44;;;;;;;;;;;39.20;24.80;;;;;;5053627;28;19917;-69
2023/06/19 08:21:09;;;;;;;;;;;39.20;24.70;;;;;;5053749;28;20374;-69
2023/06/19 08:23:35;;;;;;;;;;;39.20;24.90;;;;;;5053977;28;19916;-70
2023/06/19 08:26:01;;;;;;;;;;;39.30;25.10;;;;;;5053556;28;19924;-71
2023/06/19 08:28:27;;;;;;;;;;;39.80;25.20;;;;;;5054305;28;20366;-69
2023/06/19 08:30:52;;;;;;;;;;;40.20;24.40;;;;;;5056676;28;19908;-76
2023/06/19 08:33:18;;;;;;;;;;;40.30;24.10;;;;;;5071942;28;19916;-76
2023/06/19 08:35:44;;;;;;;;;;;40.20;24.10;;;;;;5053080;28;19916;-76
2023/06/19 08:38:09;;;;;;;;;;;40.10;24.30;;;;;;5053180;28;20368;-76
2023/06/19 08:40:35;;;;;;;;;;;40.10;24.40;;;;;;5053085;28;19909;-76
2023/06/19 08:43:00;;;;;;;;;;;40.10;24.00;;;;;;5053376;28;19966;-76
2023/06/19 08:45:26;;;;;;;;;;;40.10;24.10;;;;;;5053270;28;19920;-76
2023/06/19 08:47:57;;;;;;;;;;;40.20;24.10;;;;;;5052712;28;19936;-75
2023/06/19 08:50:23;;;;;;;;;;;40.20;24.10;;;;;;5052958;28;19913;-76
2023/06/19 08:52:48;;;;;;;;;;;40.50;24.00;;;;;;5052805;28;19917;-76
2023/06/19 08:55:13;;;;;;;;;;;40.80;23.40;;;;;;5068821;28;19908;-76
2023/06/19 08:57:39;;;;;;;;;;;40.60;23.20;;;;;;5072681;28;19917;-76
2023/06/19 09:00:09;;;;;;;;;;;40.30;23.60;;;;;;5072797;28;19909;-74
2023/06/19 09:02:40;;;;;;;;;;;40.00;23.60;;;;;;5072716;28;19908;-74
2023/06/19 09:05:13;;;;;;;;;;;39.70;23.70;;;;;;5072534;28;19912;-74
2023/06/19 09:07:38;;;;;;;;;;;39.30;24.00;;;;;;5072421;28;19925;-76
2023/06/19 09:10:17;;;;;;;;;;;39.20;24.20;;;;;;5069267;28;20256;-76
2023/06/19 09:12:44;;;;;;;;;;;39.00;24.40;;;;;;5052375;28;20013;-76
2023/06/19 09:15:13;;;;;;;;;;;38.70;24.80;;;;;;5051968;28;19912;-77
2023/06/19 09:17:39;;;;;;;;;;;38.50;25.10;;;;;;5052292;28;20292;-76
2023/06/19 09:20:05;;;;;;;;;;;38.20;25.30;;;;;;5052400;28;19909;-77
2023/06/19 09:22:31;;;;;;;;;;;38.00;25.50;;;;;;5052283;28;19908;-77
2023/06/19 09:25:00;;;;;;;;;;;37.90;25.70;;;;;;5052158;28;20096;-76
2023/06/19 09:27:31;;;;;;;;;;;37.90;25.90;;;;;;5052061;28;19913;-76
2023/06/19 09:29:56;;;;;;;;;;;38.20;26.00;;;;;;5052005;28;19913;-76
2023/06/19 09:32:26;;;;;;;;;;;38.50;25.60;;;;;;5067669;28;20284;-76
2023/06/19 09:34:54;;;;;;;;;;;38.70;25.30;;;;;;5071985;28;19909;-77
2023/06/19 09:37:24;;;;;;;;;;;38.70;25.10;;;;;;5071722;28;19908;-76
2023/06/19 09:39:57;;;;;;;;;;;38.70;25.10;;;;;;5071838;28;20007;-76
2023/06/19 09:42:32;;;;;;;;;;;38.60;25.30;;;;;;5071877;28;19912;-76
2023/06/19 09:44:59;;;;;;;;;;;38.70;25.40;;;;;;5071826;28;19948;-76
2023/06/19 09:47:25;;;;;;;;;;;38.80;25.20;;;;;;5071567;28;19951;-77
2023/06/19 09:49:54;;;;;;;;;;;38.90;25.10;;;;;;5071724;28;19963;-76
2023/06/19 09:52:22;;;;;;;;;;;39.10;25.20;;;;;;5070121;28;20367;-77
2023/06/19 09:54:49;;;;;;;;;;;39.40;25.10;;;;;;5058827;28;20368;-77
2023/06/19 09:57:14;;;;;;;;;;;39.80;24.40;;;;;;5051643;28;19909;-77
2023/06/19 09:59:41;;;;;;;;;;;40.00;24.20;;;;;;5052042;28;19917;-77
2023/06/19 10:02:07;;;;;;;;;;;40.10;24.00;;;;;;5051125;28;19923;-77
2023/06/19 10:04:44;;;;;;;;;;;39.90;23.90;;;;;;5068601;28;20352;-76
2023/06/19 10:07:20;;;;;;;;;;;39.80;23.70;;;;;;5050058;28;20300;-75
2023/06/19 10:09:59;;;;;;;;;;;39.60;23.80;;;;;;5049822;28;19966;-76
2023/06/19 10:12:37;;;;;;;;;;;39.40;24.00;;;;;;5049557;28;19913;-77
2023/06/19 10:15:13;;;;;;;;;;;39.50;24.20;;;;;;5032166;28;19913;-77
2023/06/19 10:17:42;;;;;;;;;;;39.50;24.10;;;;;;5040449;28;20314;-76
2023/06/19 10:20:17;;;;;;;;;;;39.60;24.00;;;;;;5051636;28;20408;-77
2023/06/19 10:22:50;;;;;;;;;;;39.60;23.90;;;;;;5051356;28;20018;-76
2023/06/19 10:25:23;;;;;;;;;;;39.40;24.00;;;;;;5032691;28;19924;-77
2023/06/19 10:27:52;;;;;;;;;;;39.20;24.30;;;;;;5051203;28;20340;-76
2023/06/19 10:30:19;;;;;;;;;;;39.00;24.50;;;;;;5051304;28;19964;-77
2023/06/19 10:32:45;;;;;;;;;;;38.70;24.40;;;;;;5070025;28;19912;-75
2023/06/19 10:35:14;;;;;;;;;;;38.40;24.80;;;;;;5071623;28;19913;-77
2023/06/19 10:37:40;;;;;;;;;;;38.20;25.00;;;;;;5071567;28;19920;-76
2023/06/19 10:40:08;;;;;;;;;;;37.90;25.40;;;;;;5071174;28;19913;-77
2023/06/19 10:42:34;;;;;;;;;;;37.80;25.50;;;;;;5071303;28;19908;-77
2023/06/19 10:45:02;;;;;;;;;;;37.70;25.70;;;;;;5071098;28;20007;-77
2023/06/19 10:47:28;;;;;;;;;;;37.80;25.80;;;;;;5070936;28;19962;-77
2023/06/19 10:49:53;;;;;;;;;;;37.80;25.80;;;;;;5071080;28;19935;-77
2023/06/19 10:52:20;;;;;;;;;;;37.80;25.80;;;;;;5070986;28;19908;-77
2023/06/19 10:54:45;;;;;;;;;;;37.80;25.80;;;;;;5058640;28;20356;-78
2023/06/19 10:57:13;;;;;;;;;;;37.80;25.90;;;;;;5050943;28;19916;-78
2023/06/19 10:59:39;;;;;;;;;;;37.80;26.00;;;;;;5051616;28;19935;-76
2023/06/19 11:02:05;;;;;;;;;;;37.90;26.00;;;;;;5049502;28;20372;-77
2023/06/19 11:04:31;;;;;;;;;;;37.80;25.90;;;;;;5051533;28;19962;-77
2023/06/19 11:06:56;;;;;;;;;;;37.70;25.90;;;;;;5050741;28;20007;-77
2023/06/19 11:09:22;;;;;;;;;;;37.70;26.10;;;;;;5051455;28;19913;-77
2023/06/19 11:11:48;;;;;;;;;;;37.80;26.10;;;;;;5050930;28;20322;-77
2023/06/19 11:14:14;;;;;;;;;;;38.00;25.90;;;;;;5051179;28;20000;-78
2023/06/19 11:16:41;;;;;;;;;;;38.30;25.80;;;;;;5049560;28;19954;-77
2023/06/19 11:19:07;;;;;;;;;;;38.60;25.40;;;;;;5051742;28;19925;-77
2023/06/19 11:21:38;;;;;;;;;;;38.70;25.30;;;;;;5050737;28;20443;-77
2023/06/19 11:24:05;;;;;;;;;;;38.80;25.20;;;;;;5051256;28;19916;-77
2023/06/19 11:26:34;;;;;;;;;;;38.80;25.00;;;;;;5051578;28;19935;-77
2023/06/19 11:28:59;;;;;;;;;;;39.10;25.00;;;;;;5053108;28;20000;-78
2023/06/19 11:31:26;;;;;;;;;;;39.20;24.90;;;;;;5059558;28;19939;-77
2023/06/19 11:33:56;;;;;;;;;;;39.40;24.90;;;;;;5071799;28;19923;-77
2023/06/19 11:36:21;;;;;;;;;;;39.80;24.70;;;;;;5071694;28;19974;-76
2023/06/19 11:38:47;;;;;;;;;;;40.00;24.20;;;;;;5055757;28;19917;-77
2023/06/19 11:41:12;;;;;;;;;;;40.00;24.00;;;;;;5032727;28;20371;-76
2023/06/19 11:43:38;;;;;;;;;;;39.80;24.00;;;;;;5053617;28;20452;-76
2023/06/19 11:46:05;;;;;;;;;;;39.80;24.10;;;;;;5054384;28;19913;-76
2023/06/19 11:48:30;;;;;;;;;;;39.80;24.30;;;;;;5036709;28;19921;-77
2023/06/19 11:50:56;;;;;;;;;;;39.90;24.10;;;;;;5054726;28;19943;-75
2023/06/19 11:53:22;;;;;;;;;;;39.90;24.00;;;;;;5051746;28;19921;-76
2023/06/19 11:55:48;;;;;;;;;;;39.90;24.00;;;;;;5054269;28;20044;-76
2023/06/19 11:58:15;;;;;;;;;;;39.80;23.90;;;;;;5067847;28;19977;-76
2023/06/19 12:00:41;;;;;;;;;;;39.50;24.00;;;;;;5053114;28;19917;-76
2023/06/19 12:03:06;;;;;;;;;;;39.30;24.30;;;;;;5054483;28;19921;-76
2023/06/19 12:05:32;;;;;;;;;;;39.10;24.70;;;;;;5054132;28;19928;-77
2023/06/19 12:07:57;;;;;;;;;;;39.10;24.90;;;;;;5054297;28;19917;-76
2023/06/19 12:10:23;;;;;;;;;;;39.20;24.90;;;;;;5054350;28;19909;-77
2023/06/19 12:12:48;;;;;;;;;;;39.30;24.70;;;;;;5054332;28;20285;-77
2023/06/19 12:15:14;;;;;;;;;;;39.40;24.60;;;;;;5054401;28;19909;-77
2023/06/19 12:17:39;;;;;;;;;;;39.40;24.30;;;;;;5051590;28;19917;-76
2023/06/19 12:20:05;;;;;;;;;;;39.40;24.60;;;;;;5053924;28;19962;-76
2023/06/19 12:22:32;;;;;;;;;;;39.50;24.70;;;;;;5052173;28;19919;-75
2023/06/19 12:24:57;;;;;;;;;;;39.70;24.50;;;;;;5038490;28;20384;-76
2023/06/19 12:27:23;;;;;;;;;;;39.70;24.20;;;;;;5053868;28;19963;-76
2023/06/19 12:29:48;;;;;;;;;;;39.60;24.40;;;;;;5054057;28;20008;-77
2023/06/19 12:32:14;;;;;;;;;;;39.60;24.30;;;;;;5051305;28;19920;-77
2023/06/19 12:34:40;;;;;;;;;;;39.50;24.10;;;;;;5052931;28;19924;-77
2023/06/19 12:37:06;;;;;;;;;;;39.40;24.20;;;;;;5036161;28;19908;-74
2023/06/19 12:39:32;;;;;;;;;;;39.40;24.10;;;;;;5053965;28;20007;-77
2023/06/19 12:41:58;;;;;;;;;;;39.30;24.40;;;;;;5053798;28;20372;-75
2023/06/19 12:44:24;;;;;;;;;;;39.40;24.50;;;;;;5053581;28;19963;-76
2023/06/19 12:46:50;;;;;;;;;;;39.50;24.30;;;;;;5053005;28;19917;-77
2023/06/19 12:49:15;;;;;;;;;;;39.70;24.30;;;;;;5059181;28;19943;-76
2023/06/19 12:51:41;;;;;;;;;;;39.80;24.00;;;;;;5073845;28;19916;-76
2023/06/19 12:54:06;;;;;;;;;;;39.80;23.80;;;;;;5061484;28;19925;-77
2023/06/19 12:56:32;;;;;;;;;;;39.90;23.80;;;;;;5034168;28;19913;-77
2023/06/19 12:58:57;;;;;;;;;;;40.10;23.90;;;;;;5053687;28;19921;-76
2023/06/19 13:01:22;;;;;;;;;;;40.40;23.60;;;;;;5053534;28;19908;-76
2023/06/19 13:03:48;;;;;;;;;;;40.70;23.50;;;;;;5051671;28;20300;-75
2023/06/19 13:06:14;;;;;;;;;;;41.00;23.20;;;;;;5054791;28;20347;-76
2023/06/19 13:08:39;;;;;;;;;;;41.20;23.00;;;;;;5052349;28;19921;-75
2023/06/19 13:11:04;;;;;;;;;;;41.30;22.60;;;;;;5053303;28;19913;-76
2023/06/19 13:13:30;;;;;;;;;;;41.30;22.20;;;;;;5053249;28;19912;-77
2023/06/19 13:15:55;;;;;;;;;;;41.20;22.00;;;;;;5050868;28;19921;-76
2023/06/19 13:18:21;;;;;;;;;;;41.30;22.00;;;;;;5051371;28;19928;-76
2023/06/19 13:20:47;;;;;;;;;;;41.50;21.80;;;;;;5050870;28;19919;-76
2023/06/19 13:23:14;;;;;;;;;;;41.80;21.70;;;;;;5051447;28;20372;-76
2023/06/19 13:25:39;;;;;;;;;;;42.20;21.40;;;;;;5034252;28;19913;-76
2023/06/19 13:28:04;;;;;;;;;;;42.20;21.00;;;;;;5049770;28;19962;-76
2023/06/19 13:30:30;;;;;;;;;;;41.90;20.80;;;;;;5052503;28;19909;-77
2023/06/19 13:32:55;;;;;;;;;;;41.50;21.00;;;;;;5063913;28;19925;-77
2023/06/19 13:35:21;;;;;;;;;;;41.50;21.40;;;;;;5034178;28;19920;-76
2023/06/19 13:37:47;;;;;;;;;;;41.40;21.40;;;;;;5050694;28;19924;-77
2023/06/19 13:40:12;;;;;;;;;;;41.20;21.50;;;;;;5051958;28;20276;-77
2023/06/19 13:42:38;;;;;;;;;;;41.10;21.60;;;;;;5050144;28;19971;-76
2023/06/19 13:45:04;;;;;;;;;;;41.20;21.80;;;;;;5051761;28;20007;-76
2023/06/19 13:47:30;;;;;;;;;;;41.20;21.80;;;;;;5051451;28;19917;-76
2023/06/19 13:49:57;;;;;;;;;;;41.20;21.80;;;;;;5047062;28;22278;-76
2023/06/19 13:52:23;;;;;;;;;;;41.00;21.80;;;;;;5054138;28;19915;-76
2023/06/19 13:54:48;;;;;;;;;;;40.80;21.80;;;;;;5053763;28;20283;-77
2023/06/19 13:57:14;;;;;;;;;;;40.70;22.00;;;;;;5051633;28;20381;-77
2023/06/19 13:59:39;;;;;;;;;;;40.70;21.80;;;;;;5050637;28;19966;-75
2023/06/19 14:02:05;;;;;;;;;;;40.60;22.10;;;;;;5048920;28;20376;-75
2023/06/19 14:04:31;;;;;;;;;;;40.80;22.20;;;;;;5050901;28;19943;-76
2023/06/19 14:06:56;;;;;;;;;;;41.10;21.90;;;;;;5051509;28;19921;-76
2023/06/19 14:09:22;;;;;;;;;;;41.00;21.80;;;;;;5033637;28;20312;-77
2023/06/19 14:11:47;;;;;;;;;;;40.80;21.80;;;;;;5051409;28;19966;-77
2023/06/19 14:14:13;;;;;;;;;;;40.70;22.00;;;;;;5051718;28;20267;-77